MSC Ingrid — HOHA — position and weather

sailwx.info

Track history (hours):
 
Tides and Currents Weather Stations Pressure Air Temp Water Temp Dewpoint Dewpoint Depression Visibility Wind Speed Wind Dir Waves Ship Positions

MSC Ingrid

Last reported at 2016-May-29 18:33 UTC. Time now 2016-May-29 19:12 UTC.
Position N 38°27' E 015°54'.

Length 294 m; draft 11.8 m.

Type: Ship (hazmat cat A). MMSI: 354505000.

Date/timePositionNaut miles runAvg speedWind from/ knotsBaromVisibWave heightAir tempDewpointWater temp
2016-May-29 18:33N 38°27' E 015°54'0 0.0
2016-May-29 17:33N 38°27' E 015°54'0 0.0
2016-May-29 16:33N 38°27' E 015°54'0 0.0
2016-May-29 15:33N 38°27' E 015°54'0 0.0
2016-May-29 14:33N 38°27' E 015°54'0 0.0
2016-May-29 13:33N 38°27' E 015°54'0 0.0
2016-May-29 12:33N 38°27' E 015°54'0 0.0
2016-May-29 11:33N 38°27' E 015°54'0 0.0
2016-May-29 10:33N 38°27' E 015°54'0 0.0
2016-May-29 09:33N 38°27' E 015°54'7 6.8
2016-May-29 08:33N 38°26' E 015°46'1212.0
2016-May-29 07:33N 38°24' E 015°31'1312.4
2016-May-29 06:31N 38°21' E 015°14'1414.8
2016-May-29 05:33N 38°19' E 014°56'1515.2
2016-May-29 04:33N 38°20' E 014°37'1616.1
2016-May-29 03:33N 38°22' E 014°17'1717.1
2016-May-29 02:33N 38°23' E 013°55'1717.5
2016-May-29 01:33N 38°24' E 013°33'1717.1
2016-May-29 00:33N 38°26' E 013°11'1817.5
2016-May-28 23:33N 38°27' E 012°49'1817.8
2016-May-28 22:33N 38°29' E 012°26'2018.0
2016-May-28 21:26N 38°29' E 012°00'5317.6
2016-May-28 18:25N 38°19' E 010°54'1517.9
2016-May-28 17:33N 38°16' E 010°35'1817.7
2016-May-28 16:33N 38°12' E 010°12'1817.5
2016-May-28 15:33N 38°09' E 009°50'1717.7
2016-May-28 14:33N 38°05' E 009°29'3817.7
2016-May-28 12:24N 37°56' E 008°42'17017.3
2016-May-28 02:33N 37°26' E 005°10'1817.6
2016-May-28 01:33N 37°23' E 004°48'1717.2
2016-May-28 00:33N 37°20' E 004°27'4217.7
2016-May-27 22:12N 37°11' E 003°36'4717.6
2016-May-27 19:33N 37°03' E 002°38'1716.6
2016-May-27 18:33N 37°01' E 002°18'1716.7
2016-May-27 17:33N 36°58' E 001°57'1716.7
2016-May-27 16:33N 36°55' E 001°36'1716.5
2016-May-27 15:33N 36°52' E 001°16'9017.5
2016-May-27 10:26N 36°37' W 000°34'22620.8
2016-May-26 23:33N 35°59' W 005°11'25217.8
2016-May-26 09:25N 37°56' W 009°50'1820.5
2016-May-26 08:32N 38°14' W 009°56'2020.2
2016-May-26 07:32N 38°33' W 010°03'3020.3
2016-May-26 06:04N 39°03' W 010°05'64319.6
2016-May-24 21:17N 49°08' W 005°02'3920.2
2016-May-24 19:20N 49°29' W 004°11'3519.7
2016-May-24 17:33N 49°47' W 003°24'2121.0
2016-May-24 16:33N 49°58' W 002°56'3123.2
2016-May-24 15:13N 50°06' W 002°10'6022.5
2016-May-24 12:32N 50°23' W 000°39'2020.0
2016-May-24 11:34N 50°28' W 000°09'1919.2
2016-May-24 10:33N 50°34' E 000°20'3718.6
2016-May-24 08:33N 50°54' E 001°09'2120.8
2016-May-24 07:33N 51°07' E 001°35'2120.6
2016-May-24 06:33N 51°22' E 001°56'1313.0
2016-May-24 05:33N 51°21' E 002°17'1515.0
2016-May-24 04:33N 51°22' E 002°41'1414.1
2016-May-24 03:34N 51°25' E 003°03'1615.5
2016-May-24 02:33N 51°25' E 003°28'9 8.8
2016-May-24 01:33N 51°25' E 003°42'9 9.3
2016-May-24 00:33N 51°23' E 003°56'8 8.0
2016-May-23 23:33N 51°23' E 004°09'5 5.5
2016-May-23 22:33N 51°21' E 004°17'0 0.3
2016-May-23 21:33N 51°21' E 004°18'2 1.7
2016-May-23 20:33N 51°20' E 004°20'0 0.0
2016-May-23 19:34N 51°19' E 004°20'0 0.0
2016-May-23 18:31N 51°19' E 004°20'0 0.0
2016-May-23 17:31N 51°19' E 004°20'0 0.0
2016-May-23 16:31N 51°20' E 004°20'0 0.0
2016-May-23 15:31N 51°19' E 004°20'0 0.0
2016-May-23 14:28N 51°19' E 004°20'0 0.0
2016-May-23 13:31N 51°20' E 004°20'0 0.0
2016-May-23 12:31N 51°19' E 004°20'0 0.0
2016-May-23 11:28N 51°20' E 004°20'0 0.0
2016-May-23 10:31N 51°19' E 004°20'0 0.0
2016-May-23 09:31N 51°19' E 004°20'0 0.0
2016-May-23 08:31N 51°19' E 004°20'0 0.0
2016-May-23 07:31N 51°19' E 004°20'0 0.0
2016-May-23 06:31N 51°19' E 004°20'0 0.0
2016-May-23 05:28N 51°20' E 004°20'0 0.0
2016-May-23 04:31N 51°19' E 004°20'0 0.0
2016-May-23 03:31N 51°19' E 004°20'0 0.0
2016-May-23 02:31N 51°19' E 004°20'0 0.0
2016-May-23 01:31N 51°19' E 004°20'0 0.0
2016-May-23 00:28N 51°19' E 004°20'0 0.0
2016-May-22 23:31N 51°19' E 004°20'0 0.0
2016-May-22 22:31N 51°19' E 004°20'0 0.0
2016-May-22 21:31N 51°20' E 004°20'0 0.0
2016-May-22 20:34N 51°19' E 004°20'0 0.2
2016-May-22 19:33N 51°20' E 004°20'2 2.0
2016-May-22 18:33N 51°21' E 004°17'1 1.0
2016-May-22 17:34N 51°21' E 004°15'8 8.2
2016-May-22 16:34N 51°23' E 004°03'8 8.3
2016-May-22 15:33N 51°21' E 003°50'1111.2
2016-May-22 14:33N 51°25' E 003°34'1414.3
2016-May-22 13:33N 51°24' E 003°11'1616.3
2016-May-22 12:33N 51°22' E 002°45'1212.4
2016-May-22 11:33N 51°21' E 002°25'1313.2
2016-May-22 10:33N 51°21' E 002°04'1211.7
2016-May-22 09:34N 51°29' E 001°51'1111.4
2016-May-22 08:34N 51°40' E 001°46'1312.9
2016-May-22 07:33N 51°52' E 001°36'1110.6
2016-May-22 06:33N 51°55' E 001°20'2 2.4
2016-May-22 05:33N 51°58' E 001°18'0 0.0
2016-May-22 04:33N 51°58' E 001°18'0 0.0
2016-May-22 03:33N 51°58' E 001°18'0 0.0
2016-May-22 02:33N 51°58' E 001°18'0 0.0
2016-May-22 01:33N 51°58' E 001°18'0 0.0
2016-May-22 00:32N 51°58' E 001°18'0 0.0
2016-May-21 23:32N 51°58' E 001°18'0 0.0
2016-May-21 22:32N 51°58' E 001°18'0 0.0
2016-May-21 21:32N 51°58' E 001°18'0 0.0
2016-May-21 20:32N 51°58' E 001°18'0 0.0
2016-May-21 19:32N 51°58' E 001°18'0 0.0
2016-May-21 18:32N 51°58' E 001°18'0 0.0
2016-May-21 17:32N 51°58' E 001°18'0 0.0
2016-May-21 16:32N 51°58' E 001°18'2 2.4
2016-May-21 15:33N 51°55' E 001°20'1010.4
2016-May-21 14:34N 51°52' E 001°35'7 7.4
2016-May-21 13:33N 51°51' E 001°47'1111.3
2016-May-21 12:33N 51°53' E 002°05'5312.4
2016-May-21 08:15N 52°04' E 003°30'912.9
2016-May-21 07:33N 52°04' E 003°45'9 8.8
2016-May-21 06:33N 52°01' E 003°59'5 4.8
2016-May-21 05:33N 51°58' E 004°04'0 0.0
2016-May-21 04:33N 51°58' E 004°04'0 0.0
2016-May-21 03:33N 51°58' E 004°04'0 0.0
2016-May-21 02:33N 51°58' E 004°04'0 0.0
2016-May-21 01:33N 51°58' E 004°04'0 0.0
2016-May-21 00:33N 51°58' E 004°04'0 0.0
2016-May-20 23:33N 51°58' E 004°04'0 0.0
2016-May-20 22:33N 51°58' E 004°04'0 0.0
2016-May-20 21:33N 51°58' E 004°04'0 0.0
2016-May-20 20:33N 51°58' E 004°04'0 0.0
2016-May-20 19:33N 51°58' E 004°04'0 0.0
2016-May-20 18:33N 51°58' E 004°04'0 0.0
2016-May-20 17:33N 51°58' E 004°04'0 0.0
2016-May-20 16:33N 51°58' E 004°04'0 0.0
2016-May-20 15:32N 51°58' E 004°04'4 3.6
2016-May-20 14:34N 51°60' E 003°60'1211.7
2016-May-20 13:34N 51°58' E 003°41'1513.8
2016-May-20 12:27N 51°54' E 003°17'3013.5
2016-May-20 10:15N 51°43' E 002°32'1116.4
2016-May-20 09:34N 51°34' E 002°21'1716.6
2016-May-20 08:33N 51°20' E 002°08'1716.8
2016-May-20 07:34N 51°08' E 001°49'1817.5
2016-May-20 06:33N 50°56' E 001°29'1816.6
2016-May-20 05:28N 50°39' E 001°18'3817.3
2016-May-20 03:17N 50°24' E 000°24'1317.9
2016-May-20 02:34N 50°20' E 000°04'2019.7
2016-May-20 01:33N 50°16' W 000°26'10020.0
2016-May-19 20:34N 49°49' W 002°56'2322.0
2016-May-19 19:30N 49°37' W 003°27'  
Track history (hours):
 
Tides and Currents Weather Stations Pressure Air Temp Water Temp Dewpoint Dewpoint Depression Visibility Wind Speed Wind Dir Waves Ship Positions

MSC Ingrid

Last reported at 2016-May-29 18:33 UTC. Time now 2016-May-29 19:12 UTC.
Position N 38°27' E 015°54'.

Length 294 m; draft 11.8 m.

Type: Ship (hazmat cat A). MMSI: 354505000.

Date/timePositionNaut miles runAvg speedWind from/ knotsBaromVisibWave heightAir tempDewpointWater temp
2016-May-29 18:33N 38°27' E 015°54'0 0.0
2016-May-29 17:33N 38°27' E 015°54'0 0.0
2016-May-29 16:33N 38°27' E 015°54'0 0.0
2016-May-29 15:33N 38°27' E 015°54'0 0.0
2016-May-29 14:33N 38°27' E 015°54'0 0.0
2016-May-29 13:33N 38°27' E 015°54'0 0.0
2016-May-29 12:33N 38°27' E 015°54'0 0.0
2016-May-29 11:33N 38°27' E 015°54'0 0.0
2016-May-29 10:33N 38°27' E 015°54'0 0.0
2016-May-29 09:33N 38°27' E 015°54'7 6.8
2016-May-29 08:33N 38°26' E 015°46'1212.0
2016-May-29 07:33N 38°24' E 015°31'1312.4
2016-May-29 06:31N 38°21' E 015°14'1414.8
2016-May-29 05:33N 38°19' E 014°56'1515.2
2016-May-29 04:33N 38°20' E 014°37'1616.1
2016-May-29 03:33N 38°22' E 014°17'1717.1
2016-May-29 02:33N 38°23' E 013°55'1717.5
2016-May-29 01:33N 38°24' E 013°33'1717.1
2016-May-29 00:33N 38°26' E 013°11'1817.5
2016-May-28 23:33N 38°27' E 012°49'1817.8
2016-May-28 22:33N 38°29' E 012°26'2018.0
2016-May-28 21:26N 38°29' E 012°00'5317.6
2016-May-28 18:25N 38°19' E 010°54'1517.9
2016-May-28 17:33N 38°16' E 010°35'1817.7
2016-May-28 16:33N 38°12' E 010°12'1817.5
2016-May-28 15:33N 38°09' E 009°50'1717.7
2016-May-28 14:33N 38°05' E 009°29'3817.7
2016-May-28 12:24N 37°56' E 008°42'17017.3
2016-May-28 02:33N 37°26' E 005°10'1817.6
2016-May-28 01:33N 37°23' E 004°48'1717.2
2016-May-28 00:33N 37°20' E 004°27'4217.7
2016-May-27 22:12N 37°11' E 003°36'4717.6
2016-May-27 19:33N 37°03' E 002°38'1716.6
2016-May-27 18:33N 37°01' E 002°18'1716.7
2016-May-27 17:33N 36°58' E 001°57'1716.7
2016-May-27 16:33N 36°55' E 001°36'1716.5
2016-May-27 15:33N 36°52' E 001°16'9017.5
2016-May-27 10:26N 36°37' W 000°34'22620.8
2016-May-26 23:33N 35°59' W 005°11'25217.8
2016-May-26 09:25N 37°56' W 009°50'1820.5
2016-May-26 08:32N 38°14' W 009°56'2020.2
2016-May-26 07:32N 38°33' W 010°03'3020.3
2016-May-26 06:04N 39°03' W 010°05'64319.6
2016-May-24 21:17N 49°08' W 005°02'3920.2
2016-May-24 19:20N 49°29' W 004°11'3519.7
2016-May-24 17:33N 49°47' W 003°24'2121.0
2016-May-24 16:33N 49°58' W 002°56'3123.2
2016-May-24 15:13N 50°06' W 002°10'6022.5
2016-May-24 12:32N 50°23' W 000°39'2020.0
2016-May-24 11:34N 50°28' W 000°09'1919.2
2016-May-24 10:33N 50°34' E 000°20'3718.6
2016-May-24 08:33N 50°54' E 001°09'2120.8
2016-May-24 07:33N 51°07' E 001°35'2120.6
2016-May-24 06:33N 51°22' E 001°56'1313.0
2016-May-24 05:33N 51°21' E 002°17'1515.0
2016-May-24 04:33N 51°22' E 002°41'1414.1
2016-May-24 03:34N 51°25' E 003°03'1615.5
2016-May-24 02:33N 51°25' E 003°28'9 8.8
2016-May-24 01:33N 51°25' E 003°42'9 9.3
2016-May-24 00:33N 51°23' E 003°56'8 8.0
2016-May-23 23:33N 51°23' E 004°09'5 5.5
2016-May-23 22:33N 51°21' E 004°17'0 0.3
2016-May-23 21:33N 51°21' E 004°18'2 1.7
2016-May-23 20:33N 51°20' E 004°20'0 0.0
2016-May-23 19:34N 51°19' E 004°20'0 0.0
2016-May-23 18:31N 51°19' E 004°20'0 0.0
2016-May-23 17:31N 51°19' E 004°20'0 0.0
2016-May-23 16:31N 51°20' E 004°20'0 0.0
2016-May-23 15:31N 51°19' E 004°20'0 0.0
2016-May-23 14:28N 51°19' E 004°20'0 0.0
2016-May-23 13:31N 51°20' E 004°20'0 0.0
2016-May-23 12:31N 51°19' E 004°20'0 0.0
2016-May-23 11:28N 51°20' E 004°20'0 0.0
2016-May-23 10:31N 51°19' E 004°20'0 0.0
2016-May-23 09:31N 51°19' E 004°20'0 0.0
2016-May-23 08:31N 51°19' E 004°20'0 0.0
2016-May-23 07:31N 51°19' E 004°20'0 0.0
2016-May-23 06:31N 51°19' E 004°20'0 0.0
2016-May-23 05:28N 51°20' E 004°20'0 0.0
2016-May-23 04:31N 51°19' E 004°20'0 0.0
2016-May-23 03:31N 51°19' E 004°20'0 0.0
2016-May-23 02:31N 51°19' E 004°20'0 0.0
2016-May-23 01:31N 51°19' E 004°20'0 0.0
2016-May-23 00:28N 51°19' E 004°20'0 0.0
2016-May-22 23:31N 51°19' E 004°20'0 0.0
2016-May-22 22:31N 51°19' E 004°20'0 0.0
2016-May-22 21:31N 51°20' E 004°20'0 0.0
2016-May-22 20:34N 51°19' E 004°20'0 0.2
2016-May-22 19:33N 51°20' E 004°20'2 2.0
2016-May-22 18:33N 51°21' E 004°17'1 1.0
2016-May-22 17:34N 51°21' E 004°15'8 8.2
2016-May-22 16:34N 51°23' E 004°03'8 8.3
2016-May-22 15:33N 51°21' E 003°50'1111.2
2016-May-22 14:33N 51°25' E 003°34'1414.3
2016-May-22 13:33N 51°24' E 003°11'1616.3
2016-May-22 12:33N 51°22' E 002°45'1212.4
2016-May-22 11:33N 51°21' E 002°25'1313.2
2016-May-22 10:33N 51°21' E 002°04'1211.7
2016-May-22 09:34N 51°29' E 001°51'1111.4
2016-May-22 08:34N 51°40' E 001°46'1312.9
2016-May-22 07:33N 51°52' E 001°36'1110.6
2016-May-22 06:33N 51°55' E 001°20'2 2.4
2016-May-22 05:33N 51°58' E 001°18'0 0.0
2016-May-22 04:33N 51°58' E 001°18'0 0.0
2016-May-22 03:33N 51°58' E 001°18'0 0.0
2016-May-22 02:33N 51°58' E 001°18'0 0.0
2016-May-22 01:33N 51°58' E 001°18'0 0.0
2016-May-22 00:32N 51°58' E 001°18'0 0.0
2016-May-21 23:32N 51°58' E 001°18'0 0.0
2016-May-21 22:32N 51°58' E 001°18'0 0.0
2016-May-21 21:32N 51°58' E 001°18'0 0.0
2016-May-21 20:32N 51°58' E 001°18'0 0.0
2016-May-21 19:32N 51°58' E 001°18'0 0.0
2016-May-21 18:32N 51°58' E 001°18'0 0.0
2016-May-21 17:32N 51°58' E 001°18'0 0.0
2016-May-21 16:32N 51°58' E 001°18'2 2.4
2016-May-21 15:33N 51°55' E 001°20'1010.4
2016-May-21 14:34N 51°52' E 001°35'7 7.4
2016-May-21 13:33N 51°51' E 001°47'1111.3
2016-May-21 12:33N 51°53' E 002°05'5312.4
2016-May-21 08:15N 52°04' E 003°30'912.9
2016-May-21 07:33N 52°04' E 003°45'9 8.8
2016-May-21 06:33N 52°01' E 003°59'5 4.8
2016-May-21 05:33N 51°58' E 004°04'0 0.0
2016-May-21 04:33N 51°58' E 004°04'0 0.0
2016-May-21 03:33N 51°58' E 004°04'0 0.0
2016-May-21 02:33N 51°58' E 004°04'0 0.0
2016-May-21 01:33N 51°58' E 004°04'0 0.0
2016-May-21 00:33N 51°58' E 004°04'0 0.0
2016-May-20 23:33N 51°58' E 004°04'0 0.0
2016-May-20 22:33N 51°58' E 004°04'0 0.0
2016-May-20 21:33N 51°58' E 004°04'0 0.0
2016-May-20 20:33N 51°58' E 004°04'0 0.0
2016-May-20 19:33N 51°58' E 004°04'0 0.0
2016-May-20 18:33N 51°58' E 004°04'0 0.0
2016-May-20 17:33N 51°58' E 004°04'0 0.0
2016-May-20 16:33N 51°58' E 004°04'0 0.0
2016-May-20 15:32N 51°58' E 004°04'4 3.6
2016-May-20 14:34N 51°60' E 003°60'1211.7
2016-May-20 13:34N 51°58' E 003°41'1513.8
2016-May-20 12:27N 51°54' E 003°17'3013.5
2016-May-20 10:15N 51°43' E 002°32'1116.4
2016-May-20 09:34N 51°34' E 002°21'1716.6
2016-May-20 08:33N 51°20' E 002°08'1716.8
2016-May-20 07:34N 51°08' E 001°49'1817.5
2016-May-20 06:33N 50°56' E 001°29'1816.6
2016-May-20 05:28N 50°39' E 001°18'3817.3
2016-May-20 03:17N 50°24' E 000°24'1317.9
2016-May-20 02:34N 50°20' E 000°04'2019.7
2016-May-20 01:33N 50°16' W 000°26'10020.0
2016-May-19 20:34N 49°49' W 002°56'2322.0
2016-May-19 19:30N 49°37' W 003°27'  

Dump ship's entire track history